Tiempo atmosférico en la estación meteorológica de Priego de Cordoba, Córdoba (520 m.)



Fecha
DESCASC
Temp. máxima en grados centígrados (hora)
DESCASC
Temp. mínima en grados centígrados (hora)
DESCASC
Temp. media en grados centígrados
DESCASC
Racha de viento máxima en m/sg (hora)
DESCASC
Velocidad máxima media en intervalos de 10 minutos(hora)
DESCASC
Precipitaciones diarias en mm
DESCASC
Precipitaciones de 00:00 a 06:00 en mm
DESCASC
Precipitaciones de 06:00 a 12:00 en mm
DESCASC
Precipitaciones de 12:00 a 18:00 en mm
DESCASC
Precipitaciones de 18:00 a 24:00 en mm
DESCASC
13-10-2019 31 (17:10) 13 (07:30) 22 10.83 (16:30) 7.22 (16:10) 0 0 0 0 0
12-10-2019 31 (16:00) 16.2 (07:20) 23.6 8.61 (17:50) 6.39 (18:50) 0 0 0 0 0
11-10-2019 29.8 (16:30) 15.2 (08:10) 22.5 6.94 (12:50) 4.44 (12:40) 0 0 0 0 0
10-10-2019 31.6 (17:00) 15 (00:00) 23.3 8.61 (12:40) 5.83 (12:20) 0 0 0 0 0
09-10-2019 30.4 (17:40) 13.9 (00:00) 22.1 7.5 (15:00) 5 (15:00) 0 0 0 0 0
08-10-2019 31.8 (15:20) 14.1 (00:00) 22.9 8.33 (20:10) 5.28 (20:20) 0 0 0 0 0
07-10-2019 30.5 (16:40) 12.4 (00:00) 21.4 9.17 (17:30) 6.39 (17:30) 0 0 0 0 0
06-10-2019 29.2 (17:10) 12.3 (00:00) 20.8 8.06 (12:50) 5.83 (13:00) 0 0 0 0 0
05-10-2019 28.6 (15:50) 11 (00:00) 19.8 7.5 (17:10) 4.44 (16:40) 0 0 0 0 0
04-10-2019 30.1 (16:50) 10 (00:00) 20.1 7.5 (15:40) 5.28 (15:40) 0 0 0 0 0
03-10-2019 26.7 (16:30) 10.9 (00:00) 18.8 8.33 (14:20) 4.44 (14:20) 0 0 0 0 0
02-10-2019 27.2 (15:20) 12.4 (00:00) 19.8 10 (00:20) 5.28 (01:50) 0 0 0 0 0
01-10-2019 28.5 (14:40) 15.1 (00:00) 21.8 11.39 (22:10) 6.67 (16:20) 0 0 0 0 0
30-09-2019 30.1 (16:20) 13.5 (00:00) 21.8 6.94 (15:20) 4.17 (23:59) 0 0 0 0 0
29-09-2019 33.2 (16:20) 14.4 (00:00) 23.8 7.22 (15:30) 4.72 (15:40) 0 0 0 0 0
28-09-2019 32.9 (17:10) 11.6 (00:00) 22.3 7.5 (15:50) 5 (15:50) 0 0 0 0 0
27-09-2019 31.2 (17:40) 12.8 (00:00) 22 8.89 (16:20) 5.83 (16:20) 0 0 0 0 0
26-09-2019 30.2 (16:20) 11.2 (00:00) 20.7 7.5 (15:20) 4.72 (17:10) 0 0 0 0 0
25-09-2019 28.7 (18:00) 14 (00:00) 21.4 8.89 (16:50) 5.56 (16:50) 0 0 0 0 0
24-09-2019 29.8 (17:10) 11.5 (00:00) 20.6 6.67 (13:30) 4.44 (13:20) 0 0 0 0 0
23-09-2019 26.4 (16:40) 10.4 (00:00) 18.4 6.94 (17:30) 4.72 (12:10) 0 0 0 0 0
22-09-2019 23.5 (18:10) 15.4 (00:00) 19.4 9.17 (14:20) 6.11 (14:20) 0 0 0 0 0
21-09-2019 24.2 (15:10) 17.8 (00:00) 21 7.22 (15:50) 5 (15:50) 0 0 0 0 0
20-09-2019 26.3 (14:50) 16.1 (00:00) 21.2 8.89 (16:00) 6.39 (16:00) 0 0 0 0 0
19-09-2019 29.3 (18:30) 13.9 (00:00) 21.6 6.67 (16:00) 4.17 (14:10) 0 0 0 0 0
18-09-2019 27.7 (16:30) 15.1 (00:00) 21.4 6.39 (17:20) 4.17 (01:10) 0 0 0 0 0
17-09-2019 27.6 (13:40) 17.9 (00:00) 22.8 6.67 (14:50) 3.89 (06:20) 0.8 0 0 0.8 0
16-09-2019 28.3 (18:20) 16.6 (00:00) 22.4 6.39 (15:00) 3.61 (00:40) 0 0 0 0 0
15-09-2019 25.3 (16:00) 17.5 (00:00) 21.4 7.5 (15:40) 4.72 (11:20) 0 0 0 0 0

Gráficas

Temp. máximas Temp. mínimas Temp. medias Precipitaciones Rachas de viento máximas Velocidades máximas media en intervalos de 10 minutos

Datos horarios

Fecha y hora oficial Temperatura (ºC) Velocidad del viento (km/h) Dirección del viento Racha (km/h) Dirección de racha Precipitación (mm) Presión (hPa) Tendencia (hPa) Humedad (%)
2019-10-14 23:00:00 13.8 9 Oeste 29 Sudoeste 0.4 -- -- 91
2019-10-14 22:00:00 15 21 Sudoeste 35 Sudoeste 0 -- -- 76
2019-10-14 21:00:00 16.1 26 Sudoeste 42 Sudoeste 0 -- -- 63
2019-10-14 20:00:00 16.9 19 Sudoeste 42 Oeste 0 -- -- 60
2019-10-14 19:00:00 18.5 24 Sudoeste 41 Sudoeste 0 -- -- 62
2019-10-14 18:00:00 19.6 30 Sudoeste 45 Sudoeste 0 -- -- 61
2019-10-14 17:00:00 20 22 Sudoeste 45 Sudoeste 0 -- -- 56
2019-10-14 16:00:00 20.4 26 Sudoeste 46 Sudoeste 0 -- -- 57
2019-10-14 15:00:00 20.3 31 Sudoeste 46 Sudoeste 0 -- -- 57
2019-10-14 14:00:00 19.8 21 Oeste 36 Sudoeste 0 -- -- 59
2019-10-14 13:00:00 19.2 15 Sudoeste 39 Sudoeste 0 -- -- 64
2019-10-14 12:00:00 18.2 16 Sudoeste 28 Sudoeste 0 -- -- 75
2019-10-14 11:00:00 18.4 21 Sudoeste 31 Sudoeste 0 -- -- 74
2019-10-14 10:00:00 18.9 6 Sur 12 Sur 0 -- -- 73
2019-10-14 09:00:00 17.4 8 Sudeste 13 Sur 0 -- -- 80
2019-10-14 08:00:00 17.4 12 Sur 31 Sudoeste 0 -- -- 80
2019-10-14 07:00:00 17.8 19 Sur 47 Sudoeste 0.2 -- -- 78
2019-10-14 06:00:00 23.7 25 Sur 46 Sur 0 -- -- 41
2019-10-14 05:00:00 23.4 24 Sur 40 Sur 0 -- -- 41
2019-10-14 04:00:00 20.9 15 Sudoeste 23 Sudoeste 0 -- -- 52
2019-10-14 03:00:00 23.5 13 Sudoeste 20 Sudoeste 0 -- -- 34
2019-10-14 02:00:00 24.1 9 Oeste 14 Sudoeste 0 -- -- 31
2019-10-14 01:00:00 24.7 10 Oeste 14 Oeste 0 -- -- 30
2019-10-14 00:00:00 24.9 11 Oeste 14 Oeste 0 -- -- 30
2019-10-13 23:00:00 25.3 8 Oeste 15 Oeste 0 -- -- 30
2019-10-13 22:00:00 25.2 7 Sudoeste 21 Sur 0 -- -- 29
2019-10-13 21:00:00 25.6 4 Sudoeste 15 Sur 0 -- -- 28
2019-10-13 20:00:00 27.1 14 Sur 28 Sur 0 -- -- 26
2019-10-13 19:00:00 29.2 18 Sur 37 Sur 0 -- -- 25
2019-10-13 18:00:00 30.4 24 Sur 35 Sudoeste 0 -- -- 24
2019-10-13 17:00:00 30.9 21 Sudoeste 39 Sur 0 -- -- 24
2019-10-13 16:00:00 30.3 22 Sudoeste 35 Sudoeste 0 -- -- 25
2019-10-13 15:00:00 30 23 Sudoeste 36 Sudoeste 0 -- -- 26
2019-10-13 14:00:00 27.9 6 Sudeste 13 Este 0 -- -- 35
2019-10-13 13:00:00 24.9 6 Nordeste 13 Nordeste 0 -- -- 50
2019-10-13 12:00:00 21.7 6 Nordeste 16 Nordeste 0 -- -- 61
2019-10-13 11:00:00 18.8 4 Nordeste 9 Sudoeste 0 -- -- 76
2019-10-13 10:00:00 14.7 8 Sudoeste 13 Sudoeste 0 -- -- 88
2019-10-13 09:00:00 13.5 7 Sudoeste 11 Sudoeste 0 -- -- 89
2019-10-13 08:00:00 13 6 Sudoeste 9 Sudoeste 0 -- -- 90
2019-10-13 07:00:00 14 4 Norte 12 Nordeste 0 -- -- 88
2019-10-13 06:00:00 14.4 3 Norte 7 Norte 0 -- -- 83
2019-10-13 05:00:00 15.5 4 Norte 8 Sudoeste 0 -- -- 80
2019-10-13 04:00:00 16 6 Sudoeste 10 Sudoeste 0 -- -- 79
2019-10-13 03:00:00 17.6 0 Calma 10 Sudoeste 0 -- -- 73
2019-10-13 02:00:00 18.3 7 Sudoeste 12 Sudoeste 0 -- -- 71
2019-10-13 01:00:00 19 8 Sudoeste 13 Sudoeste 0 -- -- 70
2019-10-13 00:00:00 20.6 7 Sur 11 Sur 0 -- -- 65
2019-10-12 23:00:00 21.4 9 Sur 17 Sudoeste 0 -- -- 62
2019-10-12 22:00:00 22.5 16 Sur 22 Sudoeste 0 -- -- 59
2019-10-12 21:00:00 23.8 11 Sudoeste 21 Sudoeste 0 -- -- 54
2019-10-12 20:00:00 25.1 15 Sudoeste 29 Sudoeste 0 -- -- 49
2019-10-12 19:00:00 27.5 21 Sudoeste 30 Sudoeste 0 -- -- 41
2019-10-12 18:00:00 29.2 19 Sudoeste 31 Sudoeste 0 -- -- 36
2019-10-12 17:00:00 30.7 15 Sudoeste 24 Sudoeste 0 -- -- 30
2019-10-12 16:00:00 31 9 Sur 17 Sudoeste 0 -- -- 26
2019-10-12 15:00:00 30.1 9 Sudoeste 15 Oeste 0 -- -- 29
2019-10-12 14:00:00 28.5 5 Nordeste 12 Sudoeste 0 -- -- 35
2019-10-12 13:00:00 26.3 6 Sur 11 Sur 0 -- -- 40
2019-10-12 12:00:00 23 5 Sudoeste 13 Sudoeste 0 -- -- 49
2019-10-12 11:00:00 21.9 3 Nordeste 15 Sudoeste 0 -- -- 51
2019-10-12 10:00:00 20.3 13 Sudoeste 28 Sudoeste 0 -- -- 55
2019-10-12 09:00:00 17.3 5 Nordeste 16 Oeste 0 -- -- 63
2019-10-12 08:00:00 16.7 15 Sudoeste 16 Sudoeste 0 -- -- 67
2019-10-12 07:00:00 16.8 5 Sudoeste 12 Oeste 0 -- -- 67
2019-10-12 06:00:00 17.5 7 Sudoeste 9 Sudoeste 0 -- -- 64
2019-10-12 05:00:00 19.3 3 Sur 9 Sudoeste 0 -- -- 58
2019-10-12 04:00:00 18 6 Sur 14 Sudoeste 0 -- -- 62
2019-10-12 03:00:00 18.2 6 Sudoeste 13 Sudoeste 0 -- -- 61
2019-10-12 02:00:00 19.5 5 Sudoeste 8 Sudoeste 0 -- -- 57
2019-10-12 01:00:00 20.3 8 Sudoeste 13 Sudoeste 0 -- -- 54
2019-10-12 00:00:00 20.1 8 Sudoeste 10 Sudoeste 0 -- -- 55
2019-10-11 23:00:00 21.2 4 Sudoeste 12 Sudoeste 0 -- -- 51
2019-10-11 22:00:00 22 10 Sudoeste 13 Sudoeste 0 -- -- 49
2019-10-11 21:00:00 23.5 7 Sur 9 Sudeste 0 -- -- 45
2019-10-11 20:00:00 24.8 8 Sur 12 Sudoeste 0 -- -- 41
2019-10-11 19:00:00 25.8 9 Nordeste 23 Norte 0 -- -- 41
2019-10-11 18:00:00 27.7 15 Nordeste 24 Nordeste 0 -- -- 38
2019-10-11 17:00:00 29.2 13 Sudoeste 20 Sudoeste 0 -- -- 33
2019-10-11 16:00:00 29.4 12 Oeste 18 Sudoeste 0 -- -- 31
2019-10-11 15:00:00 28.7 10 Sudoeste 23 Sur 0 -- -- 32
2019-10-11 14:00:00 28.5 15 Sur 21 Sur 0 -- -- 27
2019-10-11 13:00:00 27.3 11 Sur 25 Sudeste 0 -- -- 32
2019-10-11 12:00:00 25.6 7 Norte 12 Norte 0 -- -- 42
2019-10-11 11:00:00 21.6 5 Norte 9 Norte 0 -- -- 61
2019-10-11 10:00:00 17.5 6 Nordeste 12 Norte 0 -- -- 73
2019-10-11 09:00:00 15.3 6 Nordeste 10 Nordeste 0 -- -- 80
2019-10-11 08:00:00 15.3 6 Norte 17 Nordeste 0 -- -- 79
2019-10-11 07:00:00 16 9 Nordeste 11 Nordeste 0 -- -- 77
2019-10-11 06:00:00 16.7 5 Norte 13 Norte 0 -- -- 73
2019-10-11 05:00:00 17.6 10 Norte 13 Nordeste 0 -- -- 68
2019-10-11 04:00:00 20.6 0 Calma 8 Sur 0 -- -- 62
2019-10-11 03:00:00 19.3 3 Sudoeste 10 Sudoeste 0 -- -- 63
2019-10-11 02:00:00 18.6 8 Sudoeste 12 Sudoeste 0 -- -- 62
2019-10-11 01:00:00 18.9 9 Sudoeste 13 Sudoeste 0 -- -- 60
2019-10-11 00:00:00 19.6 9 Sudoeste 13 Sudoeste 0 -- -- 55
2019-10-10 23:00:00 21.6 8 Sudoeste 9 Sudoeste 0 -- -- 49
2019-10-10 22:00:00 22.6 8 Sudoeste 14 Sudoeste 0 -- -- 46
2019-10-10 21:00:00 24.4 13 Sudoeste 17 Sudoeste 0 -- -- 42
2019-10-10 20:00:00 26.5 12 Sudoeste 18 Sudoeste 0 -- -- 38
2019-10-10 19:00:00 29.1 15 Sudoeste 23 Sudoeste 0 -- -- 35
2019-10-10 18:00:00 30.9 14 Sur 23 Sur 0 -- -- 33
2019-10-10 17:00:00 31.6 10 Sur 24 Sur 0 -- -- 31
2019-10-10 16:00:00 30.8 14 Sudoeste 25 Sur 0 -- -- 34
2019-10-10 15:00:00 30.3 14 Sur 26 Sudoeste 0 -- -- 36
2019-10-10 14:00:00 29.1 13 Sudoeste 23 Sur 0 -- -- 38
2019-10-10 13:00:00 28.4 15 Sur 31 Sur 0 -- -- 39
2019-10-10 12:00:00 26.8 19 Sur 27 Sudeste 0 -- -- 43
2019-10-10 11:00:00 23.5 8 Oeste 11 Sudoeste 0 -- -- 49
2019-10-10 10:00:00 18 10 Sudoeste 13 Sudoeste 0 -- -- 64
2019-10-10 09:00:00 15.3 5 Sudoeste 10 Sudoeste 0 -- -- 73
2019-10-10 08:00:00 15.3 6 Sudoeste 10 Sudoeste 0 -- -- 72
2019-10-10 07:00:00 15.3 8 Sudoeste 14 Sudoeste 0 -- -- 71
2019-10-10 06:00:00 16.1 13 Sudoeste 15 Sudoeste 0 -- -- 68
2019-10-10 05:00:00 16 10 Sudoeste 20 Sudoeste 0 -- -- 69
2019-10-10 04:00:00 16.7 9 Sudoeste 13 Sudoeste 0 -- -- 66
2019-10-10 03:00:00 17.6 11 Sudoeste 13 Sudoeste 0 -- -- 62
2019-10-10 02:00:00 18.4 6 Sudoeste 8 Sudoeste 0 -- -- 60
2019-10-10 01:00:00 19.1 7 Sudoeste 10 Sudoeste 0 -- -- 58
2019-10-10 00:00:00 20.7 4 Sudoeste 9 Sudoeste 0 -- -- 54
2019-10-09 23:00:00 21.9 8 Sudoeste 11 Sudoeste 0 -- -- 51
2019-10-09 22:00:00 23.2 10 Sudoeste 11 Sudoeste 0 -- -- 48
2019-10-09 21:00:00 25.5 5 Sudoeste 10 Sur 0 -- -- 43
2019-10-09 20:00:00 27 7 Sudeste 12 Sudeste 0 -- -- 39
2019-10-09 19:00:00 29.3 7 Noroeste 22 Norte 0 -- -- 36
2019-10-09 18:00:00 30.2 10 Nordeste 18 Nordeste 0 -- -- 36
2019-10-09 17:00:00 29.8 14 Norte 26 Norte 0 -- -- 37
2019-10-09 16:00:00 29.9 15 Nordeste 26 Nordeste 0 -- -- 37
2019-10-09 15:00:00 29.1 18 Nordeste 27 Nordeste 0 -- -- 38
2019-10-09 14:00:00 28.1 15 Nordeste 23 Nordeste 0 -- -- 40
2019-10-09 13:00:00 26.8 15 Nordeste 23 Nordeste 0 -- -- 41
2019-10-09 12:00:00 25.8 12 Nordeste 17 Nordeste 0 -- -- 41
2019-10-09 11:00:00 22.9 0 Calma 10 Sudoeste 0 -- -- 48
2019-10-09 10:00:00 16.8 7 Sudoeste 9 Sudoeste 0 -- -- 63
2019-10-09 09:00:00 14.7 6 Sudoeste 9 Sudoeste 0 -- -- 69
2019-10-09 08:00:00 14 8 Sudoeste 11 Sudoeste 0 -- -- 72
2019-10-09 07:00:00 14.7 9 Sudoeste 10 Sudoeste 0 -- -- 70
2019-10-09 06:00:00 15.2 9 Sudoeste 15 Sudoeste 0 -- -- 68
2019-10-09 05:00:00 15.8 9 Sudoeste 14 Sudoeste 0 -- -- 67
2019-10-09 04:00:00 16.6 8 Sudoeste 10 Sudoeste 0 -- -- 65
2019-10-09 03:00:00 18.7 4 Sudoeste 10 Oeste 0 -- -- 60
2019-10-09 02:00:00 19.4 6 Sudoeste 15 Sur 0 -- -- 59
2019-10-09 01:00:00 19.4 13 Sudoeste 17 Sudoeste 0 -- -- 59
2019-10-09 00:00:00 19.5 12 Sudoeste 14 Sudoeste 0 -- -- 58
2019-10-08 23:00:00 21.1 10 Sudoeste 16 Sur 0 -- -- 55
2019-10-08 22:00:00 23.1 12 Sudoeste 19 Sur 0 -- -- 50
2019-10-08 21:00:00 24.3 14 Sudoeste 30 Sudoeste 0 -- -- 45
2019-10-08 20:00:00 26 15 Sudoeste 22 Sudoeste 0 -- -- 42
2019-10-08 19:00:00 28.7 17 Sudoeste 26 Sudoeste 0 -- -- 37
2019-10-08 18:00:00 30.6 14 Sudoeste 23 Sudoeste 0 -- -- 30
2019-10-08 17:00:00 31.8 9 Sudoeste 23 Oeste 0 -- -- 27
2019-10-08 16:00:00 31.2 13 Norte 23 Norte 0 -- -- 28
2019-10-08 15:00:00 31.4 6 Este 16 Sur 0 -- -- 27
2019-10-08 14:00:00 29.9 8 Este 19 Sudeste 0 -- -- 29
2019-10-08 13:00:00 29.1 12 Sur 25 Sudeste 0 -- -- 29
2019-10-08 12:00:00 27.6 14 Sudeste 21 Sudeste 0 -- -- 32
2019-10-08 11:00:00 23.7 6 Sudoeste 13 Sudoeste 0 -- -- 41
2019-10-08 10:00:00 17.9 8 Sudoeste 12 Sudoeste 0 -- -- 55
2019-10-08 09:00:00 15.2 8 Sudoeste 13 Sudoeste 0 -- -- 61
2019-10-08 08:00:00 14.7 9 Sudoeste 16 Sudoeste 0 -- -- 62
2019-10-08 07:00:00 15.2 8 Sudoeste 12 Sudoeste 0 -- -- 59
2019-10-08 06:00:00 16.2 0 Calma 12 Sudoeste 0 -- -- 55
2019-10-08 05:00:00 16 9 Sudoeste 15 Sudoeste 0 -- -- 55
2019-10-08 04:00:00 16.7 8 Sudoeste 11 Sudoeste 0 -- -- 52
2019-10-08 03:00:00 17.7 8 Sudoeste 12 Sudoeste 0 -- -- 49
2019-10-08 02:00:00 18.6 7 Sudoeste 12 Sudoeste 0 -- -- 47
2019-10-08 01:00:00 19.5 9 Sudoeste 12 Oeste 0 -- -- 44
2019-10-08 00:00:00 20.4 4 Sudoeste 13 Nordeste 0 -- -- 42
2019-10-07 23:00:00 22.9 8 Nordeste 14 Sudoeste 0 -- -- 37
2019-10-07 22:00:00 24.2 5 Sudoeste 17 Nordeste 0 -- -- 34
2019-10-07 21:00:00 25.4 12 Nordeste 19 Norte 0 -- -- 32
2019-10-07 20:00:00 27.6 12 Norte 18 Norte 0 -- -- 29
2019-10-07 19:00:00 29.9 9 Norte 31 Norte 0 -- -- 26
2019-10-07 18:00:00 30 17 Norte 33 Norte 0 -- -- 25
2019-10-07 17:00:00 30.5 14 Norte 27 Noroeste 0 -- -- 24
2019-10-07 16:00:00 29.9 15 Norte 30 Norte 0 -- -- 23
2019-10-07 15:00:00 29.6 17 Norte 30 Norte 0 -- -- 24
2019-10-07 14:00:00 29 15 Nordeste 29 Nordeste 0 -- -- 28
2019-10-07 13:00:00 28.2 13 Nordeste 17 Nordeste 0 -- -- 29
2019-10-07 12:00:00 25.7 5 Nordeste 11 Nordeste 0 -- -- 34
2019-10-07 11:00:00 22.4 5 Nordeste 8 Nordeste 0 -- -- 42
2019-10-07 10:00:00 15.7 3 Sur 9 Sudoeste 0 -- -- 56
2019-10-07 09:00:00 12.6 5 Sudoeste 9 Sur 0 -- -- 66
2019-10-07 08:00:00 12.5 7 Sudoeste 11 Sudoeste 0 -- -- 67
2019-10-07 07:00:00 12.7 11 Sudoeste 13 Sudoeste 0 -- -- 66
2019-10-07 06:00:00 13.4 11 Sudoeste 14 Sudoeste 0 -- -- 64
2019-10-07 05:00:00 14.4 5 Sudoeste 9 Sudoeste 0 -- -- 59
2019-10-07 04:00:00 15.2 6 Sudoeste 8 Sudoeste 0 -- -- 56
2019-10-07 03:00:00 15.8 6 Sudoeste 12 Sudoeste 0 -- -- 51
2019-10-07 02:00:00 16.3 9 Sudoeste 12 Sudoeste 0 -- -- 47
2019-10-07 01:00:00 18.1 3 Sur 9 Oeste 0 -- -- 41
2019-10-07 00:00:00 19.4 0 Calma 6 Noroeste 0 -- -- 38
2019-10-06 23:00:00 20.5 0 Calma 9 Sudoeste 0 -- -- 35
2019-10-06 22:00:00 21.6 8 Sudoeste 13 Sudoeste 0 -- -- 33
2019-10-06 21:00:00 23.3 9 Sur 13 Sudoeste 0 -- -- 28
2019-10-06 20:00:00 25.5 4 Sur 8 Norte 0 -- -- 26
2019-10-06 19:00:00 27.8 5 Nordeste 16 Norte 0 -- -- 24
2019-10-06 18:00:00 29.2 9 Norte 22 Nordeste 0 -- -- 26
2019-10-06 17:00:00 29.1 10 Nordeste 22 Nordeste 0 -- -- 28
2019-10-06 16:00:00 28.5 14 Nordeste 27 Nordeste 0 -- -- 31
2019-10-06 15:00:00 27.9 18 Nordeste 27 Nordeste 0 -- -- 33
2019-10-06 14:00:00 27.3 17 Norte 28 Norte 0 -- -- 35
2019-10-06 13:00:00 26.8 21 Nordeste 29 Nordeste 0 -- -- 41
2019-10-06 12:00:00 25.7 5 Nordeste 10 Nordeste 0 -- -- 45
2019-10-06 11:00:00 20.7 4 Sur 10 Oeste 0 -- -- 58
2019-10-06 10:00:00 15.7 5 Sur 12 Sudoeste 0 -- -- 73
2019-10-06 09:00:00 12.5 10 Sudoeste 14 Sudoeste 0 -- -- 80
2019-10-06 08:00:00 12.8 9 Sudoeste 13 Sudoeste 0 -- -- 80
2019-10-06 07:00:00 13.1 9 Sudoeste 12 Sudoeste 0 -- -- 78
2019-10-06 06:00:00 13.4 8 Sudoeste 13 Sudoeste 0 -- -- 75
2019-10-06 05:00:00 14.4 8 Sudoeste 13 Oeste 0 -- -- 70
2019-10-06 04:00:00 14.9 8 Sudoeste 14 Sudoeste 0 -- -- 70
2019-10-06 03:00:00 15.3 9 Sudoeste 12 Sudoeste 0 -- -- 67
2019-10-06 02:00:00 15.6 10 Sudoeste 12 Sudoeste 0 -- -- 65
2019-10-06 01:00:00 16.3 7 Sudoeste 8 Sudoeste 0 -- -- 62
2019-10-06 00:00:00 17.7 6 Sudoeste 10 Oeste 0 -- -- 58
2019-10-05 23:00:00 18.9 8 Sudoeste 10 Sudoeste 0 -- -- 56
2019-10-05 22:00:00 21 5 Sur 12 Sudoeste 0 -- -- 51
2019-10-05 21:00:00 22.3 8 Sudoeste 18 Sudoeste 0 -- -- 49
2019-10-05 20:00:00 24.8 12 Sudoeste 16 Sur 0 -- -- 42
2019-10-05 19:00:00 26.8 7 Sudoeste 19 Sur 0 -- -- 39
2019-10-05 18:00:00 27.7 6 Noroeste 27 Norte 0 -- -- 38
2019-10-05 17:00:00 28 11 Norte 24 Norte 0 -- -- 39
2019-10-05 16:00:00 28.5 14 Norte 23 Este 0 -- -- 38
2019-10-05 15:00:00 28.2 12 Nordeste 21 Nordeste 0 -- -- 36
2019-10-05 14:00:00 26.9 13 Nordeste 21 Nordeste 0 -- -- 38
2019-10-05 13:00:00 25.4 10 Norte 16 Este 0 -- -- 40
2019-10-05 12:00:00 23 6 Norte 12 Norte 0 -- -- 45
2019-10-05 11:00:00 20.2 5 Nordeste 8 Nordeste 0 -- -- 53
2019-10-05 10:00:00 14.8 2 Sudoeste 10 Sudoeste 0 -- -- 70
2019-10-05 09:00:00 11.3 6 Sudoeste 9 Sudoeste 0 -- -- 82
2019-10-05 08:00:00 11.4 6 Sudoeste 10 Sudoeste 0 -- -- 80
2019-10-05 07:00:00 12.3 9 Sudoeste 13 Sudoeste 0 -- -- 76
2019-10-05 06:00:00 12.4 8 Sudoeste 12 Sudoeste 0 -- -- 76
2019-10-05 05:00:00 14.1 6 Sudoeste 9 Sudoeste 0 -- -- 69
2019-10-05 04:00:00 14.7 8 Sudoeste 9 Sudoeste 0 -- -- 65
2019-10-05 03:00:00 17.1 0 Calma 5 Oeste 0 -- -- 55
2019-10-05 02:00:00 18.9 5 Sudoeste 8 Sur 0 -- -- 54
2019-10-05 01:00:00 19.8 6 Sur 14 Sur 0 -- -- 48
2019-10-05 00:00:00 20.2 10 Sudoeste 14 Sudoeste 0 -- -- 45
2019-10-04 23:00:00 19.9 9 Sudoeste 12 Sudoeste 0 -- -- 41
2019-10-04 22:00:00 22 4 Sudoeste 8 Sudoeste 0 -- -- 37
2019-10-04 21:00:00 23.4 4 Sudoeste 11 Sudoeste 0 -- -- 34
2019-10-04 20:00:00 26 5 Sur 22 Sudoeste 0 -- -- 29
2019-10-04 19:00:00 28.7 15 Sudoeste 21 Oeste 0 -- -- 25
2019-10-04 18:00:00 29.4 14 Sudoeste 25 Sudoeste 0 -- -- 24
2019-10-04 17:00:00 29.9 14 Sudoeste 24 Sudoeste 0 -- -- 26
2019-10-04 16:00:00 29.1 12 Norte 27 Nordeste 0 -- -- 31
2019-10-04 15:00:00 29.5 11 Nordeste 20 Nordeste 0 -- -- 31
2019-10-04 14:00:00 28.5 8 Sudeste 13 Sur 0 -- -- 28
2019-10-04 13:00:00 26.5 5 Norte 12 Norte 0 -- -- 34
2019-10-04 12:00:00 24.3 5 Nordeste 10 Este 0 -- -- 40
2019-10-04 11:00:00 19.4 3 Norte 6 Sudoeste 0 -- -- 50
2019-10-04 10:00:00 13.9 4 Sudoeste 14 Sudoeste 0 -- -- 65
2019-10-04 09:00:00 10.3 10 Sudoeste 13 Sudoeste 0 -- -- 77
2019-10-04 08:00:00 10.2 9 Sudoeste 12 Sudoeste 0 -- -- 78
2019-10-04 07:00:00 10.9 9 Sudoeste 12 Sudoeste 0 -- -- 75
2019-10-04 06:00:00 12.6 3 Sudoeste 5 Oeste 0 -- -- 68
2019-10-04 05:00:00 12.7 4 Sudoeste 12 Sudoeste 0 -- -- 66
2019-10-04 04:00:00 13.2 8 Sudoeste 13 Sudoeste 0 -- -- 64
2019-10-04 03:00:00 13.6 11 Sudoeste 12 Sudoeste 0 -- -- 63
2019-10-04 02:00:00 15.6 5 Sudoeste 11 Sudoeste 0 -- -- 56
2019-10-04 01:00:00 17.3 6 Sudoeste 8 Sudoeste 0 -- -- 51
2019-10-04 00:00:00 18.3 5 Sudoeste 9 Sudoeste 0 -- -- 48
2019-10-03 23:00:00 18.9 8 Sur 15 Sur 0 -- -- 46
2019-10-03 22:00:00 19.1 9 Sudoeste 10 Sudoeste 0 -- -- 48
2019-10-03 21:00:00 21.7 5 Sudoeste 6 Sur 0 -- -- 41
2019-10-03 20:00:00 24.4 5 Sudoeste 11 Noroeste 0 -- -- 36
2019-10-03 19:00:00 26.2 4 Oeste 21 Norte 0 -- -- 31
2019-10-03 18:00:00 26.2 10 Norte 29 Norte 0 -- -- 31
2019-10-03 17:00:00 26.6 11 Norte 26 Noroeste 0 -- -- 29
2019-10-03 16:00:00 26.4 12 Norte 25 Noroeste 0 -- -- 33
2019-10-03 15:00:00 25.3 13 Noroeste 30 Noroeste 0 -- -- 35
2019-10-03 14:00:00 26.1 15 Nordeste 25 Norte 0 -- -- 32
2019-10-03 13:00:00 24.1 9 Nordeste 15 Nordeste 0 -- -- 41
2019-10-03 12:00:00 22.2 7 Norte 12 Norte 0 -- -- 44
2019-10-03 11:00:00 18.8 4 Sudoeste 9 Sudoeste 0 -- -- 51
2019-10-03 10:00:00 14.2 8 Sudoeste 11 Sudoeste 0 -- -- 64
2019-10-03 09:00:00 11.4 5 Sudoeste 9 Sudoeste 0 -- -- 72
2019-10-03 08:00:00 10.9 7 Sudoeste 12 Sudoeste 0 -- -- 75
2019-10-03 07:00:00 11.7 5 Sudoeste 7 Sudoeste 0 -- -- 72
2019-10-03 06:00:00 12.5 7 Sudoeste 10 Sudoeste 0 -- -- 69
2019-10-03 05:00:00 13 10 Sudoeste 13 Sudoeste 0 -- -- 70
2019-10-03 04:00:00 13.8 10 Sudoeste 14 Sudoeste 0 -- -- 65
2019-10-03 03:00:00 14.6 9 Sudoeste 13 Oeste 0 -- -- 61
2019-10-03 02:00:00 17.2 6 Sur 13 Sudoeste 0 -- -- 56
2019-10-03 01:00:00 18.1 8 Sur 22 Sudoeste 0 -- -- 53
2019-10-03 00:00:00 19.3 14 Sur 22 Sur 0 -- -- 48
2019-10-02 23:00:00 19.7 13 Sudoeste 17 Sur 0 -- -- 41
2019-10-02 22:00:00 19.7 11 Sudoeste 14 Sudoeste 0 -- -- 42
2019-10-02 21:00:00 20.9 4 Sur 18 Sudoeste 0 -- -- 39
2019-10-02 20:00:00 23.4 15 Sudoeste 23 Sudoeste 0 -- -- 35
2019-10-02 19:00:00 25.9 8 Oeste 24 Noroeste 0 -- -- 28
2019-10-02 18:00:00 26.2 15 Oeste 26 Oeste 0 -- -- 28
2019-10-02 17:00:00 26.5 11 Noroeste 28 Noroeste 0 -- -- 27
2019-10-02 16:00:00 26.5 15 Norte 30 Norte 0 -- -- 31
2019-10-02 15:00:00 26.9 16 Norte 30 Norte 0 -- -- 31
2019-10-02 14:00:00 26.8 9 Sudeste 31 Este 0 -- -- 35
2019-10-02 13:00:00 25.4 6 Nordeste 14 Oeste 0 -- -- 39
2019-10-02 12:00:00 22.8 5 Sudoeste 10 Sudoeste 0 -- -- 47
2019-10-02 11:00:00 19 5 Sudoeste 9 Sudoeste 0 -- -- 57
2019-10-02 10:00:00 14.9 4 Sudoeste 10 Sudoeste 0 -- -- 71
2019-10-02 09:00:00 12.4 9 Sudoeste 11 Sudoeste 0 -- -- 79
2019-10-02 08:00:00 13.5 5 Sudoeste 9 Sudoeste 0 -- -- 73
2019-10-02 07:00:00 14.3 6 Sudoeste 7 Sudoeste 0 -- -- 71
2019-10-02 06:00:00 15.7 0 Calma 9 Norte 0 -- -- 66
2019-10-02 05:00:00 17.3 4 Sudeste 9 Noroeste 0 -- -- 61
2019-10-02 04:00:00 18.7 5 Sudeste 12 Sur 0 -- -- 57
2019-10-02 03:00:00 19.9 8 Sudoeste 30 Oeste 0 -- -- 52
2019-10-02 02:00:00 21.7 18 Noroeste 33 Oeste 0 -- -- 49
2019-10-02 01:00:00 22.2 15 Noroeste 36 Noroeste 0 -- -- 47
2019-10-02 00:00:00 22.7 18 Noroeste 39 Noroeste 0 -- -- 44
2019-10-01 23:00:00 23.2 20 Noroeste 41 Noroeste 0 -- -- 41
2019-10-01 22:00:00 23.7 18 Norte 35 Noroeste 0 -- -- 40
2019-10-01 21:00:00 24.8 21 Noroeste 36 Noroeste 0 -- -- 37
2019-10-01 20:00:00 25.9 6 Noroeste 32 Noroeste 0 -- -- 31
2019-10-01 19:00:00 27.3 12 Oeste 32 Oeste 0 -- -- 28
2019-10-01 18:00:00 28.1 15 Oeste 30 Oeste 0 -- -- 26
2019-10-01 17:00:00 28.5 17 Oeste 39 Sudoeste 0 -- -- 26
2019-10-01 16:00:00 28.5 22 Sudoeste 37 Sudoeste 0 -- -- 26
2019-10-01 15:00:00 28.4 22 Sudoeste 38 Sudoeste 0 -- -- 21
2019-10-01 14:00:00 28 23 Sudoeste 31 Sudoeste 0 -- -- 22
2019-10-01 13:00:00 26.8 21 Sudoeste 28 Sudoeste 0 -- -- 25
2019-10-01 12:00:00 25.8 17 Sudoeste 25 Sudoeste 0 -- -- 30
2019-10-01 11:00:00 23.9 8 Sur 12 Sudoeste 0 -- -- 38
2019-10-01 10:00:00 19.3 4 Sudoeste 8 Sudoeste 0 -- -- 55
2019-10-01 09:00:00 16.6 6 Sudoeste 13 Oeste 0 -- -- 62
2019-10-01 08:00:00 15.7 0 Calma 15 Sudoeste 0 -- -- 65
2019-10-01 07:00:00 15.8 10 Sudoeste 12 Sudoeste 0 -- -- 66
2019-10-01 06:00:00 17.3 6 Sudoeste 12 Sudoeste 0 -- -- 59
2019-10-01 05:00:00 17 8 Sudoeste 9 Sudoeste 0 -- -- 59
2019-10-01 04:00:00 17.1 6 Sudoeste 11 Sudoeste 0 -- -- 58
2019-10-01 03:00:00 16.7 9 Sudoeste 10 Sudoeste 0 -- -- 60
2019-10-01 02:00:00 17.7 6 Sudoeste 10 Sudoeste 0 -- -- 56
2019-10-01 01:00:00 18.2 7 Sudoeste 20 Sudoeste 0 -- -- 55
2019-10-01 00:00:00 19.1 15 Sudoeste 17 Sudoeste 0 -- -- 54
2019-09-30 23:00:00 20.7 12 Sudoeste 15 Sudoeste 0 -- -- 52
2019-09-30 22:00:00 22.8 12 Sudoeste 14 Sudoeste 0 -- -- 48
2019-09-30 21:00:00 25.5 6 Sudoeste 12 Sur 0 -- -- 41
2019-09-30 20:00:00 27.7 10 Sur 15 Sur 0 -- -- 36
2019-09-30 19:00:00 28.8 5 Nordeste 13 Nordeste 0 -- -- 34
2019-09-30 18:00:00 29.4 9 Norte 21 Norte 0 -- -- 33
2019-09-30 17:00:00 29.7 13 Nordeste 22 Norte 0 -- -- 32
2019-09-30 16:00:00 30 9 Norte 25 Nordeste 0 -- -- 34
2019-09-30 15:00:00 29.6 12 Nordeste 21 Nordeste 0 -- -- 35
2019-09-30 14:00:00 28.9 11 Nordeste 17 Nordeste 0 -- -- 35
2019-09-30 13:00:00 27.5 8 Norte 12 Norte 0 -- -- 38
2019-09-30 12:00:00 26.9 4 Sudeste 11 Este 0 -- -- 43
2019-09-30 11:00:00 22 0 Calma 6 Sudoeste 0 -- -- 53
2019-09-30 10:00:00 16.6 5 Sudoeste 12 Sudoeste 0 -- -- 68
2019-09-30 09:00:00 13.7 8 Sudoeste 10 Sudoeste 0 -- -- 78
2019-09-30 08:00:00 14 6 Sudoeste 8 Sudoeste 0 -- -- 78
2019-09-30 07:00:00 14.2 8 Sudoeste 10 Sudoeste 0 -- -- 74
2019-09-30 06:00:00 14.7 6 Sudoeste 12 Sudoeste 0 -- -- 72
2019-09-30 05:00:00 15.2 10 Sudoeste 13 Sudoeste 0 -- -- 68
2019-09-30 04:00:00 16.8 8 Sudoeste 9 Sudoeste 0 -- -- 59
2019-09-30 03:00:00 18.1 3 Sudoeste 4 Sudoeste 0 -- -- 52
2019-09-30 02:00:00 19.9 0 Calma 8 Sur 0 -- -- 48
2019-09-30 01:00:00 20.4 8 Sur 12 Sur 0 -- -- 46
2019-09-30 00:00:00 22.2 5 Sudoeste 9 Sur 0 -- -- 41
2019-09-29 23:00:00 23.5 5 Sudoeste 9 Sudoeste 0 -- -- 38
2019-09-29 22:00:00 24.7 4 Sudoeste 10 Sudoeste 0 -- -- 35
2019-09-29 21:00:00 26.2 10 Sudoeste 20 Sudoeste 0 -- -- 33
2019-09-29 20:00:00 28.9 8 Sudoeste 18 Sudoeste 0 -- -- 30
2019-09-29 19:00:00 31.6 14 Sudoeste 24 Sudoeste 0 -- -- 25
2019-09-29 18:00:00 32.7 10 Sudoeste 25 Oeste 0 -- -- 24
2019-09-29 17:00:00 33.1 13 Sudoeste 24 Sudoeste 0 -- -- 22
2019-09-29 16:00:00 32.9 13 Sur 26 Sur 0 -- -- 22
2019-09-29 15:00:00 32.1 10 Sudoeste 22 Norte 0 -- -- 25
2019-09-29 14:00:00 30.7 17 Nordeste 22 Norte 0 -- -- 30
2019-09-29 13:00:00 30 9 Nordeste 17 Nordeste 0 -- -- 33
2019-09-29 12:00:00 27.8 0 Calma 6 Sur 0 -- -- 35
2019-09-29 11:00:00 22.6 6 Sudoeste 12 Sudoeste 0 -- -- 48
2019-09-29 10:00:00 17.2 9 Sudoeste 11 Sudoeste 0 -- -- 60
2019-09-29 09:00:00 15.2 4 Sudoeste 10 Sudoeste 0 -- -- 65
2019-09-29 08:00:00 14.6 6 Sudoeste 9 Sudoeste 0 -- -- 67
2019-09-29 07:00:00 15.1 9 Sudoeste 12 Sudoeste 0 -- -- 66
2019-09-29 06:00:00 15.2 11 Sudoeste 15 Sudoeste 0 -- -- 65
2019-09-29 05:00:00 15.8 13 Sudoeste 15 Oeste 0 -- -- 63
2019-09-29 04:00:00 17.1 9 Sudoeste 15 Sudoeste 0 -- -- 59
2019-09-29 03:00:00 18.3 9 Sudoeste 14 Sudoeste 0 -- -- 56
2019-09-29 02:00:00 20.4 7 Sudoeste 13 Sur 0 -- -- 49
2019-09-29 01:00:00 21.8 10 Sur 15 Sudoeste 0 -- -- 46
2019-09-29 00:00:00 21.7 9 Sudoeste 14 Sudoeste 0 -- -- 46
2019-09-28 23:00:00 22.7 11 Sudoeste 14 Sudoeste 0 -- -- 43
2019-09-28 22:00:00 25.3 7 Sur 13 Sudoeste 0 -- -- 37
2019-09-28 21:00:00 26.7 9 Sur 12 Sur 0 -- -- 34
2019-09-28 20:00:00 29.7 7 Sudoeste 20 Oeste 0 -- -- 27
2019-09-28 19:00:00 32.3 10 Sudoeste 19 Sudoeste 0 -- -- 23
2019-09-28 18:00:00 32.7 14 Sudoeste 21 Sudoeste 0 -- -- 19
2019-09-28 17:00:00 32.7 11 Sudoeste 24 Sudoeste 0 -- -- 20
2019-09-28 16:00:00 32.7 18 Sudoeste 27 Sudoeste 0 -- -- 19
2019-09-28 15:00:00 32 9 Sudoeste 20 Oeste 0 -- -- 24
2019-09-28 14:00:00 30.7 6 Oeste 19 Sudoeste 0 -- -- 26
2019-09-28 13:00:00 29.8 3 Norte 12 Noroeste 0 -- -- 29
2019-09-28 12:00:00 27.8 3 Norte 6 Noroeste 0 -- -- 32
2019-09-28 11:00:00 22.9 5 Sur 9 Sudoeste 0 -- -- 42
2019-09-28 10:00:00 17 7 Sudoeste 14 Sudoeste 0 -- -- 53
2019-09-28 09:00:00 12.6 13 Sudoeste 15 Sudoeste 0 -- -- 67
2019-09-28 08:00:00 12 11 Sudoeste 12 Sudoeste 0 -- -- 70
2019-09-28 07:00:00 13 4 Sudoeste 10 Sudoeste 0 -- -- 65
2019-09-28 06:00:00 13 6 Sudoeste 12 Sudoeste 0 -- -- 65
2019-09-28 05:00:00 13.5 10 Sudoeste 14 Sudoeste 0 -- -- 62
2019-09-28 04:00:00 14.7 12 Sudoeste 14 Sudoeste 0 -- -- 57
2019-09-28 03:00:00 15 12 Sudoeste 13 Sudoeste 0 -- -- 57
2019-09-28 02:00:00 16.2 8 Sudoeste 11 Sudoeste 0 -- -- 53
2019-09-28 01:00:00 16.9 9 Sudoeste 10 Sudoeste 0 -- -- 52
2019-09-28 00:00:00 18.7 6 Sudoeste 14 Sudoeste 0 -- -- 47
2019-09-27 23:00:00 20 10 Sudoeste 13 Sudoeste 0 -- -- 43
2019-09-27 22:00:00 22.4 10 Sudoeste 15 Sudoeste 0 -- -- 37
2019-09-27 21:00:00 24.5 9 Sudoeste 13 Sudoeste 0 -- -- 33
2019-09-27 20:00:00 28.1 4 Sudoeste 18 Sudoeste 0 -- -- 25
2019-09-27 19:00:00 30.2 15 Sudoeste 24 Sudoeste 0 -- -- 23
2019-09-27 18:00:00 31.1 13 Sudoeste 19 Sudoeste 0 -- -- 21
2019-09-27 17:00:00 30.3 12 Nordeste 32 Norte 0 -- -- 30
2019-09-27 16:00:00 29.7 18 Norte 31 Norte 0 -- -- 31
2019-09-27 15:00:00 29.5 18 Nordeste 27 Norte 0 -- -- 33
2019-09-27 14:00:00 29.8 12 Nordeste 19 Nordeste 0 -- -- 31
2019-09-27 13:00:00 28.8 5 Norte 11 Nordeste 0 -- -- 32
2019-09-27 12:00:00 26.3 5 Norte 9 Norte 0 -- -- 37
2019-09-27 11:00:00 22.2 4 Sudoeste 9 Sudoeste 0 -- -- 49
2019-09-27 10:00:00 17.1 7 Sudoeste 12 Sudoeste 0 -- -- 63
2019-09-27 09:00:00 13.3 10 Sudoeste 15 Sudoeste 0 -- -- 75
2019-09-27 08:00:00 12.8 7 Sudoeste 14 Sudoeste 0 -- -- 76
2019-09-27 07:00:00 13.2 9 Sudoeste 14 Oeste 0 -- -- 74
2019-09-27 06:00:00 14.6 4 Sudoeste 10 Sudoeste 0 -- -- 68
2019-09-27 05:00:00 15.5 2 Sudeste 12 Sudoeste 0 -- -- 63
2019-09-27 04:00:00 16 4 Sudoeste 12 Sudoeste 0 -- -- 60
2019-09-27 03:00:00 16.5 9 Sudoeste 16 Sudoeste 0 -- -- 58
2019-09-27 02:00:00 16.2 13 Sudoeste 14 Sudoeste 0 -- -- 60
2019-09-27 01:00:00 17.1 10 Sudoeste 16 Sudoeste 0 -- -- 58
2019-09-27 00:00:00 18.1 13 Sudoeste 14 Sudoeste 0 -- -- 56
2019-09-26 23:00:00 19.9 10 Sudoeste 12 Sudoeste 0 -- -- 50
2019-09-26 22:00:00 22.5 6 Sudoeste 10 Sudoeste 0 -- -- 42
2019-09-26 21:00:00 24.8 2 Oeste 14 Nordeste 0 -- -- 36
2019-09-26 20:00:00 26.7 9 Nordeste 17 Nordeste 0 -- -- 33
2019-09-26 19:00:00 29 9 Nordeste 20 Norte 0 -- -- 30
2019-09-26 18:00:00 29.5 14 Nordeste 27 Norte 0 -- -- 30
2019-09-26 17:00:00 30 15 Norte 23 Norte 0 -- -- 30
2019-09-26 16:00:00 29.9 10 Nordeste 27 Nordeste 0 -- -- 31
2019-09-26 15:00:00 29.7 12 Nordeste 20 Norte 0 -- -- 31
2019-09-26 14:00:00 28.8 9 Sur 20 Sudoeste 0 -- -- 29
2019-09-26 13:00:00 27.7 12 Sudoeste 19 Sudoeste 0 -- -- 32
2019-09-26 12:00:00 25.8 7 Sudoeste 14 Sudoeste 0 -- -- 36
2019-09-26 11:00:00 21.5 3 Sur 10 Sudoeste 0 -- -- 48
2019-09-26 10:00:00 16.4 9 Sudoeste 12 Sudoeste 0 -- -- 64
2019-09-26 09:00:00 11.6 10 Sudoeste 14 Sudoeste 0 -- -- 79
2019-09-26 08:00:00 11.9 9 Sudoeste 10 Sudoeste 0 -- -- 77
2019-09-26 07:00:00 12.6 6 Sudoeste 11 Sudoeste 0 -- -- 74
2019-09-26 06:00:00 12.7 9 Sudoeste 11 Sudoeste 0 -- -- 73
2019-09-26 05:00:00 13.1 6 Sudoeste 12 Sudoeste 0 -- -- 72
2019-09-26 04:00:00 13.8 10 Sudoeste 12 Sudoeste 0 -- -- 69
2019-09-26 03:00:00 14.1 9 Sudoeste 11 Sudoeste 0 -- -- 69
2019-09-26 02:00:00 15.4 8 Sudoeste 10 Sudoeste 0 -- -- 63
2019-09-26 01:00:00 16.2 9 Sudoeste 13 Sudoeste 0 -- -- 61
2019-09-26 00:00:00 18 3 Sur 10 Oeste 0 -- -- 53
2019-09-25 23:00:00 19.5 6 Sudoeste 10 Sudoeste 0 -- -- 49
2019-09-25 22:00:00 21.3 8 Sur 14 Sudoeste 0 -- -- 43
2019-09-25 21:00:00 23 8 Sur 12 Sudoeste 0 -- -- 39
2019-09-25 20:00:00 25.7 9 Oeste 22 Noroeste 0 -- -- 33
2019-09-25 19:00:00 27.9 5 Noroeste 23 Noroeste 0 -- -- 34
2019-09-25 18:00:00 28.7 9 Noroeste 31 Norte 0 -- -- 35
2019-09-25 17:00:00 27.9 20 Norte 32 Norte 0 -- -- 37
2019-09-25 16:00:00 27.8 15 Norte 27 Norte 0 -- -- 43
2019-09-25 15:00:00 27.3 15 Nordeste 24 Nordeste 0 -- -- 50
2019-09-25 14:00:00 26.3 11 Nordeste 18 Norte 0 -- -- 51
2019-09-25 13:00:00 25.6 5 Nordeste 13 Sur 0 -- -- 56
2019-09-25 12:00:00 22.7 6 Norte 14 Norte 0 -- -- 65
2019-09-25 11:00:00 21.4 8 Nordeste 13 Nordeste 0 -- -- 69
2019-09-25 10:00:00 16.9 0 Calma 6 Este 0 -- -- 78
2019-09-25 09:00:00 15 2 Oeste 8 Sudoeste 0 -- -- 80
2019-09-25 08:00:00 14.2 6 Sudoeste 10 Sudoeste 0 -- -- 81
2019-09-25 07:00:00 14.9 3 Sudoeste 8 Sudoeste 0 -- -- 75
2019-09-25 06:00:00 15 6 Sudoeste 8 Sudoeste 0 -- -- 72
2019-09-25 05:00:00 15.8 4 Sudoeste 12 Oeste 0 -- -- 66
2019-09-25 04:00:00 17 5 Sudoeste 12 Sudoeste 0 -- -- 59
2019-09-25 03:00:00 17.2 9 Sudoeste 12 Sudoeste 0 -- -- 58
2019-09-25 02:00:00 18.9 2 Nordeste 6 Noroeste 0 -- -- 50
2019-09-25 01:00:00 19.7 4 Sur 17 Noroeste 0 -- -- 47
2019-09-25 00:00:00 20.3 8 Sudoeste 10 Sur 0 -- -- 46
2019-09-24 23:00:00 21.8 6 Sur 14 Sudoeste 0 -- -- 41
2019-09-24 22:00:00 23.2 6 Sudoeste 17 Sudoeste 0 -- -- 38
2019-09-24 21:00:00 24.6 7 Oeste 15 Sudoeste 0 -- -- 35
2019-09-24 20:00:00 27.9 5 Sur 17 Norte 0 -- -- 29
2019-09-24 19:00:00 29.2 8 Norte 21 Norte 0 -- -- 28
2019-09-24 18:00:00 29.6 11 Norte 22 Nordeste 0 -- -- 29
2019-09-24 17:00:00 29.7 12 Nordeste 23 Nordeste 0 -- -- 30
2019-09-24 16:00:00 29.3 10 Nordeste 21 Nordeste 0 -- -- 31
2019-09-24 15:00:00 28.6 9 Nordeste 21 Nordeste 0 -- -- 31
2019-09-24 14:00:00 27.5 11 Nordeste 24 Nordeste 0 -- -- 34
2019-09-24 13:00:00 26.9 14 Nordeste 20 Nordeste 0 -- -- 36
2019-09-24 12:00:00 25.3 7 Nordeste 13 Nordeste 0 -- -- 41
2019-09-24 11:00:00 20.9 0 Calma 10 Sudoeste 0 -- -- 51
2019-09-24 10:00:00 15.5 8 Sudoeste 9 Sudoeste 0 -- -- 63
2019-09-24 09:00:00 13 4 Sudoeste 11 Sudoeste 0 -- -- 72
2019-09-24 08:00:00 11.8 8 Sudoeste 12 Sudoeste 0 -- -- 78
2019-09-24 07:00:00 11.9 8 Sudoeste 13 Sudoeste 0 -- -- 78
2019-09-24 06:00:00 12.5 9 Sudoeste 12 Sudoeste 0 -- -- 76
2019-09-24 05:00:00 12.9 10 Sudoeste 12 Sudoeste 0 -- -- 76
2019-09-24 04:00:00 13.4 9 Sudoeste 10 Sudoeste 0 -- -- 74
2019-09-24 03:00:00 13.7 9 Sudoeste 12 Sudoeste 0 -- -- 74
2019-09-24 02:00:00 14.7 11 Sudoeste 14 Sudoeste 0 -- -- 70
2019-09-24 01:00:00 15.9 8 Sudoeste 10 Sudoeste 0 -- -- 67
2019-09-24 00:00:00 17.6 5 Sudoeste 10 Sudoeste 0 -- -- 60
2019-09-23 23:00:00 18.2 9 Sudoeste 12 Sudoeste 0 -- -- 59
2019-09-23 22:00:00 20.1 9 Sudoeste 12 Sudoeste 0 -- -- 52
2019-09-23 21:00:00 21.9 5 Nordeste 13 Nordeste 0 -- -- 44
2019-09-23 20:00:00 23.7 11 Nordeste 18 Nordeste 0 -- -- 40
2019-09-23 19:00:00 25 13 Nordeste 23 Nordeste 0 -- -- 39
2019-09-23 18:00:00 25.9 15 Norte 25 Norte 0 -- -- 39
2019-09-23 17:00:00 26.4 15 Nordeste 21 Nordeste 0 -- -- 39
2019-09-23 16:00:00 26.1 14 Nordeste 22 Nordeste 0 -- -- 40
2019-09-23 15:00:00 25.2 8 Norte 18 Nordeste 0 -- -- 38
2019-09-23 14:00:00 23.7 10 Nordeste 23 Norte 0 -- -- 46
2019-09-23 13:00:00 22.8 13 Nordeste 24 Nordeste 0 -- -- 51
2019-09-23 12:00:00 21.5 17 Nordeste 22 Nordeste 0 -- -- 54
2019-09-23 11:00:00 18.1 4 Noroeste 7 Noroeste 0 -- -- 69
2019-09-23 10:00:00 14 4 Sudoeste 7 Sudoeste 0 -- -- 84
2019-09-23 09:00:00 11.3 5 Sudoeste 9 Sudoeste 0 -- -- 91
2019-09-23 08:00:00 10.4 4 Sur 12 Oeste 0 -- -- 93
2019-09-23 07:00:00 11.7 3 Sudoeste 4 Sudoeste 0 -- -- 87
2019-09-23 06:00:00 11.9 3 Sudoeste 9 Oeste 0 -- -- 88
2019-09-23 05:00:00 12.5 7 Sudoeste 9 Sudoeste 0 -- -- 87
2019-09-23 04:00:00 13 5 Sudoeste 13 Sudoeste 0 -- -- 86
2019-09-23 03:00:00 13.9 9 Sudoeste 13 Sudoeste 0 -- -- 83
2019-09-23 02:00:00 14.5 8 Sudoeste 12 Sudoeste 0 -- -- 82
2019-09-23 01:00:00 14.9 9 Sudoeste 14 Oeste 0 -- -- 81
2019-09-23 00:00:00 15.4 10 Sudoeste 12 Oeste 0 -- -- 80
2019-09-22 23:00:00 16.8 8 Sur 12 Sudoeste 0 -- -- 74
2019-09-22 22:00:00 17.9 7 Sudoeste 9 Sur 0 -- -- 69
2019-09-22 21:00:00 19.3 6 Sur 12 Sudoeste 0 -- -- 64
2019-09-22 20:00:00 21.1 9 Sudoeste 21 Sudoeste 0 -- -- 59
2019-09-22 19:00:00 23 10 Oeste 27 Sudoeste 0 -- -- 52
2019-09-22 18:00:00 23.4 12 Oeste 30 Sudoeste 0 -- -- 54
2019-09-22 17:00:00 23 17 Sudoeste 24 Sudoeste 0 -- -- 63
2019-09-22 16:00:00 21.7 8 Sudoeste 20 Sur 0 -- -- 71
2019-09-22 15:00:00 20.7 13 Sur 33 Oeste 0 -- -- 76
2019-09-22 14:00:00 21 15 Sudoeste 23 Sudoeste 0 -- -- 72
2019-09-22 13:00:00 21.3 18 Sudoeste 26 Oeste 0 -- -- 70
2019-09-22 12:00:00 20.6 9 Sudoeste 14 Sudoeste 0 -- -- 72
2019-09-22 11:00:00 18.3 10 Sudoeste 21 Sudoeste 0 -- -- 84
2019-09-22 10:00:00 17.5 0 Calma 9 Oeste 0 -- -- 87
2019-09-22 09:00:00 16.2 6 Sudoeste 10 Sudoeste 0 -- -- 91
2019-09-22 08:00:00 15.5 7 Sudoeste 10 Sudoeste 0 -- -- 91
2019-09-22 07:00:00 15.9 7 Sudoeste 10 Oeste 0 -- -- 90
2019-09-22 06:00:00 16.4 8 Sudoeste 9 Oeste 0 -- -- 88
2019-09-22 05:00:00 17.1 4 Sudoeste 6 Sudoeste 0 -- -- 85
2019-09-22 04:00:00 17.9 0 Calma 6 Norte 0 -- -- 82
2019-09-22 03:00:00 18.2 0 Calma 5 Sudeste 0 -- -- 79
2019-09-22 02:00:00 18.7 3 Sudoeste 7 Nordeste 0 -- -- 78
2019-09-22 01:00:00 19.2 4 Norte 11 Sur 0 -- -- 73
2019-09-22 00:00:00 19.5 8 Sudoeste 13 Sudoeste 0 -- -- 72
2019-09-21 23:00:00 19.9 10 Sudoeste 16 Sudoeste 0 -- -- 69
2019-09-21 22:00:00 20.5 10 Sudoeste 19 Sur 0 -- -- 66
2019-09-21 21:00:00 21.2 9 Sudoeste 17 Sudoeste 0 -- -- 63
2019-09-21 20:00:00 21.9 7 Sudoeste 15 Nordeste 0 -- -- 71
2019-09-21 19:00:00 22.4 11 Nordeste 16 Nordeste 0 -- -- 72
2019-09-21 18:00:00 23.6 7 Nordeste 18 Sudoeste 0 -- -- 68
2019-09-21 17:00:00 23.4 11 Nordeste 19 Sudoeste 0 -- -- 68
2019-09-21 16:00:00 23.8 16 Sudoeste 26 Sudoeste 0 -- -- 60
2019-09-21 15:00:00 24.1 17 Sudoeste 24 Sudoeste 0 -- -- 61
2019-09-21 14:00:00 23.2 17 Sudoeste 26 Sudoeste 0 -- -- 64
2019-09-21 13:00:00 22.7 10 Sudoeste 15 Sudoeste 0 -- -- 66
2019-09-21 12:00:00 21.5 10 Oeste 15 Sudoeste 0 -- -- 74
2019-09-21 11:00:00 20.5 3 Sur 10 Oeste 0 -- -- 77
2019-09-21 10:00:00 18.9 3 Noroeste 8 Nordeste 0 -- -- 82
2019-09-21 09:00:00 18 5 Nordeste 12 Nordeste 0 -- -- 86
2019-09-21 08:00:00 17.8 9 Nordeste 14 Nordeste 0 -- -- 86
2019-09-21 07:00:00 18.1 8 Nordeste 17 Nordeste 0 -- -- 86
2019-09-21 06:00:00 18.2 10 Nordeste 15 Nordeste 0 -- -- 86
2019-09-21 05:00:00 18 11 Nordeste 14 Nordeste 0 -- -- 87
2019-09-21 04:00:00 18.4 5 Norte 11 Sudoeste 0 -- -- 82
2019-09-21 03:00:00 19.1 2 Sur 8 Norte 0 -- -- 78
2019-09-21 02:00:00 20.3 6 Sur 10 Sur 0 -- -- 73
2019-09-21 01:00:00 20.8 6 Sudoeste 16 Sur 0 -- -- 70
2019-09-21 00:00:00 20.9 8 Sudeste 14 Sur 0 -- -- 69
2019-09-20 23:00:00 21 7 Sudoeste 19 Sudoeste 0 -- -- 68
2019-09-20 22:00:00 21.2 17 Sudoeste 23 Sudoeste 0 -- -- 67
2019-09-20 21:00:00 22.1 7 Sudoeste 18 Sudoeste 0 -- -- 63
2019-09-20 20:00:00 23 13 Sudoeste 24 Sudoeste 0 -- -- 58
2019-09-20 19:00:00 23.8 17 Sudoeste 26 Sudoeste 0 -- -- 57
2019-09-20 18:00:00 24.5 18 Sudoeste 28 Sudoeste 0 -- -- 54
2019-09-20 17:00:00 25.1 18 Sudoeste 30 Sudoeste 0 -- -- 53
2019-09-20 16:00:00 25.5 23 Sudoeste 32 Sudoeste 0 -- -- 50
2019-09-20 15:00:00 26.3 14 Sudoeste 28 Sudoeste 0 -- -- 49
2019-09-20 14:00:00 25.7 7 Sudoeste 17 Sudoeste 0 -- -- 53
2019-09-20 13:00:00 23.5 7 Oeste 11 Oeste 0 -- -- 59
2019-09-20 12:00:00 21.6 8 Nordeste 12 Nordeste 0 -- -- 65
2019-09-20 11:00:00 20.1 0 Calma 13 Sudoeste 0 -- -- 71
2019-09-20 10:00:00 17.8 9 Sudoeste 13 Sudoeste 0 -- -- 79
2019-09-20 09:00:00 16.7 0 Calma 6 Sudoeste 0 -- -- 84
2019-09-20 08:00:00 16.2 3 Noroeste 10 Nordeste 0 -- -- 84
2019-09-20 07:00:00 16.8 7 Norte 9 Nordeste 0 -- -- 81
2019-09-20 06:00:00 17.3 2 Oeste 9 Sudoeste 0 -- -- 78
2019-09-20 05:00:00 17.8 5 Sudoeste 9 Sudoeste 0 -- -- 77
2019-09-20 04:00:00 18.4 3 Sudoeste 8 Sudoeste 0 -- -- 74
2019-09-20 03:00:00 19.6 4 Sudoeste 8 Sudoeste 0 -- -- 69
2019-09-20 02:00:00 19.6 4 Sudoeste 11 Sudoeste 0 -- -- 67
2019-09-20 01:00:00 19.7 10 Sudoeste 13 Sudoeste 0 -- -- 68
2019-09-20 00:00:00 20.3 10 Sudoeste 11 Sudoeste 0 -- -- 64
2019-09-19 23:00:00 22 7 Sudoeste 10 Sur 0 -- -- 55
2019-09-19 22:00:00 23.1 7 Sudoeste 14 Sur 0 -- -- 51
2019-09-19 21:00:00 25 6 Sudoeste 12 Sudoeste 0 -- -- 44
2019-09-19 20:00:00 27.3 7 Sudoeste 20 Sudoeste 0 -- -- 39
2019-09-19 19:00:00 29.1 13 Sudoeste 19 Sudoeste 0 -- -- 37
2019-09-19 18:00:00 29 8 Norte 21 Norte 0 -- -- 44
2019-09-19 17:00:00 28.2 13 Nordeste 23 Norte 0 -- -- 46
2019-09-19 16:00:00 28.4 15 Nordeste 24 Nordeste 0 -- -- 46
2019-09-19 15:00:00 27.8 13 Nordeste 23 Nordeste 0 -- -- 48
2019-09-19 14:00:00 28.1 8 Este 16 Nordeste 0 -- -- 47
2019-09-19 13:00:00 26 11 Norte 18 Norte 0 -- -- 54
2019-09-19 12:00:00 23.9 5 Norte 8 Norte 0 -- -- 59
2019-09-19 11:00:00 21.7 5 Nordeste 9 Nordeste 0 -- -- 67
2019-09-19 10:00:00 17.1 3 Sudoeste 9 Sudoeste 0 -- -- 85
2019-09-19 09:00:00 14.3 7 Sudoeste 13 Sudoeste 0 -- -- 92
2019-09-19 08:00:00 14.1 9 Sudoeste 11 Sudoeste 0 -- -- 92
2019-09-19 07:00:00 14.3 7 Sudoeste 10 Sudoeste 0 -- -- 91
2019-09-19 06:00:00 14.7 6 Sudoeste 8 Sudoeste 0 -- -- 91
2019-09-19 05:00:00 15.6 5 Sudoeste 9 Sudoeste 0 -- -- 86
2019-09-19 04:00:00 16 8 Sudoeste 9 Sudoeste 0 -- -- 86
2019-09-19 03:00:00 17.1 3 Sudoeste 7 Oeste 0 -- -- 81
2019-09-19 02:00:00 18.3 4 Sudoeste 7 Sur 0 -- -- 77
2019-09-19 01:00:00 18.1 7 Sudoeste 11 Sudoeste 0 -- -- 79
2019-09-19 00:00:00 20.1 6 Oeste 8 Oeste 0 -- -- 71
2019-09-18 23:00:00 21.5 6 Sudoeste 12 Sudoeste 0 -- -- 62
2019-09-18 22:00:00 22.1 7 Sur 12 Sudoeste 0 -- -- 63
2019-09-18 21:00:00 23.6 8 Sudoeste 13 Sudoeste 0 -- -- 58
2019-09-18 20:00:00 25.8 3 Noroeste 22 Norte 0 -- -- 51
2019-09-18 19:00:00 26.4 12 Norte 22 Noroeste 0 -- -- 51
2019-09-18 18:00:00 26.5 8 Norte 23 Norte 0 -- -- 54
2019-09-18 17:00:00 27.5 13 Nordeste 19 Norte 0 -- -- 53
2019-09-18 16:00:00 27.1 10 Nordeste 22 Norte 0 -- -- 55
2019-09-18 15:00:00 26.2 12 Norte 21 Norte 0 -- -- 57
2019-09-18 14:00:00 25.4 13 Nordeste 22 Nordeste 0 -- -- 60
2019-09-18 13:00:00 24.4 15 Nordeste 22 Nordeste 0 -- -- 65
2019-09-18 12:00:00 23.2 14 Nordeste 21 Nordeste 0 -- -- 72
2019-09-18 11:00:00 21.2 6 Nordeste 10 Nordeste 0 -- -- 79
2019-09-18 10:00:00 17.5 4 Sudoeste 7 Sudoeste 0 -- -- 90
2019-09-18 09:00:00 15.5 5 Sudoeste 7 Sudoeste 0 -- -- 94
2019-09-18 08:00:00 15.2 4 Sudoeste 8 Sudoeste 0 -- -- 95
2019-09-18 07:00:00 15.5 7 Sudoeste 9 Sudoeste 0 -- -- 95
2019-09-18 06:00:00 15.9 9 Sudoeste 10 Sudoeste 0 -- -- 94
2019-09-18 05:00:00 16.5 8 Sudoeste 10 Sudoeste 0 -- -- 92
2019-09-18 04:00:00 17.9 2 Oeste 5 Oeste 0 -- -- 87
2019-09-18 03:00:00 17.8 0 Calma 13 Sudoeste 0 -- -- 88
2019-09-18 02:00:00 18 9 Sudoeste 19 Sudoeste 0 -- -- 87
2019-09-18 01:00:00 17.7 12 Sudoeste 14 Sudoeste 0 -- -- 89
2019-09-18 00:00:00 18.1 9 Sudoeste 13 Sudoeste 0 -- -- 89
2019-09-17 23:00:00 19.7 5 Sur 9 Sudoeste 0 -- -- 83
2019-09-17 22:00:00 21.6 0 Calma 8 Sur 0 -- -- 75
2019-09-17 21:00:00 22.4 6 Sur 18 Sudoeste 0 -- -- 71
2019-09-15 18:00:00 -- -- -- -- -- -- -- -- --
2019-09-15 17:00:00 -- -- -- -- -- -- -- -- --
2019-09-15 16:00:00 25.3 8 Norte 27 Nordeste 0 -- -- 69
2019-09-15 15:00:00 24 10 Norte 23 Norte 0 -- -- 71
2019-09-15 14:00:00 24.6 12 Nordeste 22 Nordeste 0 -- -- 69
2019-09-15 13:00:00 24.1 10 Nordeste 21 Nordeste 0 -- -- 72
2019-09-15 12:00:00 23.2 15 Nordeste 23 Nordeste 0 -- -- 78
2019-09-15 11:00:00 21.8 15 Nordeste 22 Nordeste 0 -- -- 83
2019-09-15 10:00:00 20.2 11 Nordeste 15 Nordeste 0 -- -- 90
2019-09-15 09:00:00 17.8 4 Sudoeste 12 Sudoeste 0 -- -- 96
2019-09-15 08:00:00 17.6 11 Sudoeste 12 Sudoeste 0 -- -- 96
2019-09-15 07:00:00 18.1 5 Sudoeste 8 Sur 0 -- -- 96
2019-09-15 06:00:00 18.4 5 Sudoeste 6 Sudoeste 0 -- -- 95
2019-09-15 05:00:00 18.4 0 Calma 6 Oeste 0 -- -- 95
2019-09-15 04:00:00 18.3 5 Sudoeste 9 Sudoeste 0 -- -- 95
2019-09-15 03:00:00 18.5 4 Sur 7 Sudoeste 0 -- -- 95
2019-09-15 02:00:00 18.6 2 Sudoeste 8 Sudoeste 0 -- -- 94
2019-09-15 01:00:00 18.9 9 Sudoeste 12 Oeste 0 -- -- 93
2019-09-15 00:00:00 19.3 6 Sudoeste 9 Sudoeste 0 -- -- 92